Time;durP1;ratioP1;P1;durP2;ratioP2;P2;SDS_P1;SDS_P2;PMS_P1;PMS_P2;Temp;Humidity;BMP_temperature;BMP_pressure;BME280_temperature;BME280_humidity;BME280_pressure;Samples;Min_cycle;Max_cycle;Signal;HPM_P1;HPM_P2
2022/07/02 00:01:13;;;;;;;12.38;4.00;;;14.30;99.90;;;14.20;100.00;100808.44;4948139;28;20206;-65
2022/07/02 00:03:49;;;;;;;6.22;2.30;;;14.30;99.90;;;14.10;100.00;100810.22;4960654;28;20204;-65
2022/07/02 00:06:20;;;;;;;7.05;2.78;;;14.20;99.90;;;14.12;100.00;100818.19;4979813;28;20236;-65
2022/07/02 00:08:49;;;;;;;5.63;2.00;;;14.20;99.90;;;14.22;100.00;100825.28;4951816;28;20236;-65
2022/07/02 00:11:17;;;;;;;7.15;2.63;;;14.20;99.90;;;14.27;100.00;100819.06;4938869;28;20217;-65
2022/07/02 00:13:46;;;;;;;8.48;2.90;;;14.20;99.90;;;14.41;100.00;100835.97;4965658;28;20225;-65
2022/07/02 00:16:14;;;;;;;6.40;2.40;;;14.30;99.90;;;14.44;100.00;100834.22;4963907;28;20212;-65
2022/07/02 00:18:43;;;;;;;5.43;1.95;;;14.30;99.90;;;14.27;100.00;100843.03;4980217;28;20287;-65
2022/07/02 00:21:13;;;;;;;4.90;1.63;;;14.30;99.90;;;14.07;100.00;100847.44;4949947;28;20216;-65
2022/07/02 00:23:43;;;;;;;2.83;1.23;;;14.20;99.90;;;14.23;100.00;100840.34;4968382;28;20220;-65
2022/07/02 00:26:31;;;;;;;7.22;2.30;;;14.20;99.90;;;14.24;100.00;100847.44;4986687;28;20220;-65
2022/07/02 00:29:28;;;;;;;4.50;1.48;;;14.20;99.90;;;14.17;100.00;100874.94;4954443;28;20241;-65
2022/07/02 00:31:57;;;;;;;6.70;2.05;;;14.20;99.90;;;14.10;100.00;100884.69;4971853;28;20748;-65
2022/07/02 00:34:26;;;;;;;3.80;1.40;;;14.20;99.90;;;14.03;100.00;100881.13;4984774;28;20212;-65
2022/07/02 00:36:55;;;;;;;5.38;1.85;;;14.10;99.90;;;13.83;100.00;100908.53;4968405;28;20664;-65
2022/07/02 00:39:23;;;;;;;5.97;2.13;;;14.00;99.90;;;13.59;100.00;100906.69;4958058;28;21815;-65
2022/07/02 00:41:53;;;;;;;3.65;1.27;;;13.90;99.90;;;13.42;100.00;100914.56;4952874;28;20223;-65
2022/07/02 00:44:22;;;;;;;3.97;1.50;;;13.80;99.90;;;13.55;100.00;100932.34;4966041;28;20212;-65
2022/07/02 00:46:52;;;;;;;4.43;1.45;;;13.80;99.90;;;13.48;100.00;100935.84;4984135;28;20219;-65
2022/07/02 00:49:21;;;;;;;5.60;1.80;;;13.70;99.90;;;13.55;100.00;100953.59;4952855;28;20247;-65
2022/07/02 00:51:49;;;;;;;7.60;2.28;;;13.70;99.90;;;13.57;100.00;100949.19;4983518;28;20645;-65
2022/07/02 00:54:17;;;;;;;4.60;1.58;;;13.70;99.90;;;13.64;100.00;100945.69;4936037;28;20251;-65
2022/07/02 00:56:46;;;;;;;6.47;1.95;;;13.70;99.90;;;13.75;100.00;100940.41;4966950;28;20205;-65
2022/07/02 00:59:16;;;;;;;4.38;1.38;;;13.70;99.90;;;13.47;100.00;100954.44;4952444;28;20228;-65
2022/07/02 01:01:44;;;;;;;3.33;1.15;;;13.60;99.90;;;13.35;100.00;100968.56;4938720;28;20204;-65
2022/07/02 01:04:14;;;;;;;7.35;2.22;;;13.60;99.90;;;13.37;100.00;100980.06;4972649;28;20189;-65
2022/07/02 01:06:44;;;;;;;11.23;2.55;;;13.50;99.90;;;13.36;100.00;101002.22;4982493;28;20217;-65
2022/07/02 01:12:07;;;;;;;6.63;1.75;;;13.40;99.90;;;13.24;100.00;101013.63;4968010;28;20239;-65
2022/07/02 01:14:46;;;;;;;6.72;2.03;;;13.40;99.90;;;13.01;100.00;101020.50;4969844;28;20533;-65
2022/07/02 01:17:14;;;;;;;6.05;1.77;;;13.30;99.90;;;13.02;100.00;101032.91;4988587;28;20211;-65
2022/07/02 01:19:42;;;;;;;5.85;1.75;;;13.30;99.90;;;12.90;100.00;101046.03;4956283;28;20224;-65
2022/07/02 01:22:24;;;;;;;4.72;1.48;;;13.10;99.90;;;12.84;100.00;101060.13;4955790;28;20211;-65
2022/07/02 01:24:53;;;;;;;4.57;1.33;;;13.10;99.90;;;12.94;100.00;101069.97;4986651;28;20213;-65
2022/07/02 01:27:23;;;;;;;2.78;1.00;;;13.10;99.90;;;12.85;100.00;101069.88;4948014;28;20229;-65
2022/07/02 01:29:51;;;;;;;6.05;2.05;;;13.00;99.90;;;12.89;100.00;101076.09;4954059;28;20561;-65
2022/07/02 01:32:19;;;;;;;5.93;1.90;;;13.00;99.90;;;12.89;100.00;101087.63;4970811;28;20216;-64
2022/07/02 01:35:04;;;;;;;6.32;1.90;;;13.00;99.90;;;12.48;100.00;101076.56;4938919;28;20197;-64
2022/07/02 01:37:32;;;;;;;4.50;1.38;;;12.90;99.90;;;12.49;100.00;101105.75;4960632;28;20556;-65
2022/07/02 01:40:00;;;;;;;4.70;1.60;;;12.80;99.90;;;12.65;100.00;101114.78;4959485;28;20711;-65
2022/07/02 01:42:28;;;;;;;4.22;1.30;;;12.80;99.90;;;12.57;100.00;101115.56;4971824;28;20209;-65
2022/07/02 01:44:56;;;;;;;4.10;1.30;;;12.70;99.90;;;12.54;100.00;101108.47;4957780;28;20208;-65
2022/07/02 01:47:25;;;;;;;5.18;1.52;;;12.70;99.90;;;12.56;100.00;101127.06;4961381;28;20592;-65
2022/07/02 01:49:53;;;;;;;3.85;1.33;;;12.70;99.90;;;12.48;100.00;101146.44;4961109;28;20220;-65
2022/07/02 01:52:21;;;;;;;4.50;1.35;;;12.70;99.90;;;12.56;100.00;101153.59;4975909;28;20604;-64
2022/07/02 01:54:49;;;;;;;5.88;1.80;;;12.70;99.90;;;12.75;100.00;101151.16;4967734;28;20201;-65
2022/07/02 01:57:17;;;;;;;7.47;2.22;;;12.70;99.90;;;12.61;100.00;101144.81;4978467;28;20665;-64
2022/07/02 01:59:45;;;;;;;4.38;1.35;;;12.70;99.90;;;12.53;100.00;101154.44;4965194;28;20233;-65
2022/07/02 02:02:13;;;;;;;7.70;2.33;;;12.70;99.90;;;12.44;100.00;101154.31;4970077;28;20228;-65
2022/07/02 02:04:41;;;;;;;7.45;2.28;;;12.60;99.90;;;12.44;100.00;101159.63;4988519;28;20722;-65
2022/07/02 02:07:10;;;;;;;4.47;1.40;;;12.60;99.90;;;12.33;100.00;101167.44;4972529;28;20208;-65
2022/07/02 02:09:38;;;;;;;4.68;1.42;;;12.60;99.90;;;12.21;100.00;101171.69;4972089;28;20243;-65
2022/07/02 02:12:06;;;;;;;8.60;2.45;;;12.50;99.90;;;12.32;100.00;101172.72;4957697;28;20211;-65
2022/07/02 02:14:35;;;;;;;7.07;1.95;;;12.50;99.90;;;12.37;100.00;101189.59;4937641;28;20248;-65
2022/07/02 02:17:05;;;;;;;6.68;1.88;;;12.50;99.90;;;12.32;100.00;101183.34;4988331;28;20213;-65
2022/07/02 02:19:33;;;;;;;6.50;1.77;;;12.50;99.90;;;12.32;100.00;101196.59;4979954;28;20217;-65
2022/07/02 02:22:01;;;;;;;6.30;1.80;;;12.40;99.90;;;12.36;100.00;101186.06;4963895;28;20208;-65
2022/07/02 02:24:29;;;;;;;6.63;1.98;;;12.40;99.90;;;12.37;100.00;101194.91;4932980;28;20205;-65
2022/07/02 02:26:58;;;;;;;9.30;2.53;;;12.40;99.90;;;12.38;100.00;101186.97;4935050;28;20209;-65
2022/07/02 02:29:28;;;;;;;6.53;2.28;;;12.40;99.90;;;12.33;100.00;101193.09;4966736;28;20236;-65
2022/07/02 02:31:56;;;;;;;5.75;1.92;;;12.40;99.90;;;12.28;100.00;101185.06;4980698;28;20198;-65
2022/07/02 02:34:24;;;;;;;9.18;2.55;;;12.30;99.90;;;12.36;100.00;101180.75;4950012;28;20209;-64
2022/07/02 02:36:52;;;;;;;7.88;2.25;;;12.30;99.90;;;12.40;100.00;101193.19;4951555;28;20213;-64
2022/07/02 02:39:20;;;;;;;9.27;2.80;;;12.40;99.90;;;12.49;100.00;101201.28;4950146;28;20719;-64
2022/07/02 02:41:48;;;;;;;15.50;3.92;;;12.40;99.90;;;12.33;100.00;101209.00;4993581;28;20219;-65
2022/07/02 02:44:16;;;;;;;7.32;1.95;;;12.40;99.90;;;12.36;100.00;101207.28;4951156;28;20212;-65
2022/07/02 02:46:44;;;;;;;13.05;3.33;;;12.40;99.90;;;12.55;100.00;101207.53;4953046;28;20220;-64
2022/07/02 02:49:11;;;;;;;13.27;3.05;;;12.40;99.90;;;12.38;100.00;101210.84;4940115;28;20247;-65
2022/07/02 02:51:39;;;;;;;12.43;3.13;;;12.50;99.90;;;11.96;100.00;101224.34;4973112;28;20204;-64
2022/07/02 02:54:07;;;;;;;9.90;2.70;;;12.30;99.90;;;11.88;100.00;101236.59;4972142;28;20200;-64
2022/07/02 02:56:35;;;;;;;11.02;2.97;;;12.20;99.90;;;11.90;100.00;101240.16;5000462;28;20216;-64
2022/07/02 02:59:03;;;;;;;9.57;2.55;;;12.10;99.90;;;11.88;100.00;101244.53;4985539;28;20224;-64
2022/07/02 03:01:31;;;;;;;9.73;2.60;;;12.00;99.90;;;11.73;100.00;101239.84;4953837;28;20569;-65
2022/07/02 03:04:00;;;;;;;8.65;2.30;;;12.00;99.90;;;11.71;100.00;101236.28;4985876;28;20224;-64
2022/07/02 03:06:29;;;;;;;10.82;2.90;;;11.90;99.90;;;11.61;100.00;101238.72;4957935;28;20208;-65
2022/07/02 03:08:57;;;;;;;12.05;3.30;;;11.80;99.90;;;11.50;100.00;101254.41;4950406;28;20221;-64
2022/07/02 03:11:25;;;;;;;10.73;2.67;;;11.80;99.90;;;11.52;100.00;101261.53;4951736;28;20216;-64
2022/07/02 03:13:53;;;;;;;11.93;2.92;;;11.70;99.90;;;11.61;100.00;101276.69;4969064;28;20197;-64
2022/07/02 03:16:21;;;;;;;8.38;2.15;;;11.70;99.90;;;11.61;100.00;101283.75;4987447;28;20209;-64
2022/07/02 03:18:49;;;;;;;12.88;3.20;;;11.70;99.90;;;11.50;100.00;101288.84;4954088;28;20224;-64
2022/07/02 03:21:17;;;;;;;9.55;2.42;;;11.60;99.90;;;11.53;100.00;101296.84;4980209;28;20216;-65
2022/07/02 03:23:45;;;;;;;10.10;2.58;;;11.60;99.90;;;11.43;100.00;101297.53;4954912;28;20208;-65
2022/07/02 03:26:13;;;;;;;10.75;2.75;;;11.60;99.90;;;11.51;100.00;101299.47;4984007;28;20208;-65
2022/07/02 03:28:41;;;;;;;13.70;3.22;;;11.60;99.90;;;11.47;100.00;101302.03;4968884;28;20232;-64
2022/07/02 03:31:09;;;;;;;9.77;2.25;;;11.50;99.90;;;11.53;100.00;101291.56;4968666;28;20201;-64
2022/07/02 03:33:38;;;;;;;9.68;2.60;;;11.60;99.90;;;11.44;100.00;101307.28;4985024;28;20688;-65
2022/07/02 03:36:06;;;;;;;9.77;2.45;;;11.60;99.90;;;11.54;100.00;101326.03;4952997;28;20216;-64
2022/07/02 03:38:34;;;;;;;10.07;2.60;;;11.60;99.90;;;11.73;100.00;101339.66;4983920;28;20718;-65
2022/07/02 03:41:02;;;;;;;10.38;2.63;;;11.70;99.90;;;11.75;100.00;101340.56;4937429;28;20216;-64
2022/07/02 03:43:30;;;;;;;15.40;3.70;;;11.70;99.90;;;11.67;100.00;101327.16;4985200;28;20216;-65
2022/07/02 03:45:58;;;;;;;11.60;2.75;;;11.80;99.90;;;11.50;100.00;101328.56;4936403;28;20204;-64
2022/07/02 03:48:26;;;;;;;13.90;3.25;;;11.70;99.90;;;11.55;100.00;101332.22;4938461;28;20727;-64
2022/07/02 03:50:54;;;;;;;4.28;1.23;;;11.60;99.90;;;11.81;100.00;101338.97;4972973;28;20220;-64
2022/07/02 03:53:22;;;;;;;2.72;0.80;;;11.70;99.90;;;11.82;100.00;101322.19;4992143;28;20199;-64
2022/07/02 03:55:51;;;;;;;10.32;2.63;;;11.80;99.90;;;11.86;100.00;101331.09;4971613;28;20219;-64
2022/07/02 03:58:19;;;;;;;7.22;1.95;;;11.80;99.90;;;11.81;100.00;101331.00;4953533;28;20227;-64
2022/07/02 04:00:47;;;;;;;8.27;2.38;;;11.80;99.90;;;11.80;100.00;101330.97;4996701;28;20220;-64
2022/07/02 04:03:15;;;;;;;7.93;1.92;;;11.80;99.90;;;11.88;100.00;101324.06;4984453;28;20215;-65
2022/07/02 04:05:43;;;;;;;10.70;2.97;;;11.80;99.90;;;11.88;100.00;101325.81;4966966;28;20220;-65
2022/07/02 04:08:17;;;;;;;8.40;2.22;;;11.80;99.90;;;11.73;100.00;101353.78;4952118;28;20231;-65
2022/07/02 04:10:45;;;;;;;5.47;1.55;;;11.80;99.90;;;11.72;100.00;101370.56;4970244;28;20201;-65
2022/07/02 04:13:13;;;;;;;6.43;1.73;;;11.80;99.90;;;11.86;100.00;101365.53;4950941;28;20204;-65
2022/07/02 04:15:41;;;;;;;9.10;2.33;;;11.80;99.90;;;11.93;100.00;101370.09;4969748;28;20652;-65
2022/07/02 04:18:09;;;;;;;17.60;4.18;;;11.80;99.90;;;12.00;100.00;101371.09;4966039;28;20225;-65
2022/07/02 04:20:37;;;;;;;8.43;2.20;;;11.90;99.90;;;12.07;100.00;101375.66;4969196;28;20251;-65
2022/07/02 04:23:04;;;;;;;8.07;2.28;;;11.90;99.90;;;12.16;100.00;101373.16;4952650;28;20225;-65
2022/07/02 04:25:32;;;;;;;6.90;1.98;;;12.00;99.90;;;12.16;100.00;101386.41;4967306;28;20217;-65
2022/07/02 04:28:00;;;;;;;9.57;2.63;;;12.10;99.90;;;12.22;100.00;101388.28;4968074;28;20239;-66
2022/07/02 04:30:29;;;;;;;8.45;2.30;;;12.10;99.90;;;12.31;100.00;101391.09;4953569;28;20221;-65
2022/07/02 04:32:56;;;;;;;11.77;2.95;;;12.10;99.90;;;12.35;100.00;101391.19;4952232;28;20212;-65
2022/07/02 04:35:25;;;;;;;9.00;2.38;;;12.10;99.90;;;12.37;100.00;101378.84;4966557;28;20201;-65
2022/07/02 04:37:52;;;;;;;8.48;2.25;;;12.20;99.90;;;12.41;100.00;101377.13;4952342;28;20231;-65
2022/07/02 04:40:20;;;;;;;8.40;2.15;;;12.20;99.90;;;12.47;100.00;101377.22;4954991;28;20220;-66
2022/07/02 04:42:48;;;;;;;9.00;2.40;;;12.20;99.90;;;12.47;100.00;101398.44;4983312;28;20212;-65
2022/07/02 04:45:16;;;;;;;10.27;2.75;;;12.30;99.90;;;12.53;100.00;101419.78;4968795;28;20209;-66
2022/07/02 04:47:44;;;;;;;10.85;2.97;;;12.40;99.90;;;12.61;100.00;101412.84;4982422;28;20239;-66
2022/07/02 04:50:12;;;;;;;6.93;1.85;;;12.40;99.90;;;12.63;100.00;101405.78;4940750;28;20227;-65
2022/07/02 04:52:40;;;;;;;13.18;3.20;;;12.40;99.90;;;12.74;100.00;101390.03;4982092;28;20213;-65
2022/07/02 04:55:08;;;;;;;8.43;2.25;;;12.40;99.90;;;12.82;100.00;101378.66;4965490;28;20203;-63
2022/07/02 04:57:36;;;;;;;13.02;3.10;;;12.70;99.90;;;12.91;100.00;101369.94;4950177;28;20205;-63
2022/07/02 05:00:05;;;;;;;13.10;3.17;;;12.70;99.90;;;12.96;100.00;101365.59;4957158;28;20200;-63
2022/07/02 05:02:34;;;;;;;11.98;2.83;;;12.80;99.90;;;13.24;100.00;101372.22;4939568;28;20205;-63
2022/07/02 05:05:03;;;;;;;11.25;2.58;;;12.80;99.90;;;13.33;100.00;101371.44;4971807;28;20211;-63
2022/07/02 05:07:31;;;;;;;13.48;3.10;;;12.90;99.90;;;13.56;100.00;101395.66;4957279;28;20220;-63
2022/07/02 05:09:59;;;;;;;17.33;3.78;;;12.90;99.90;;;13.57;100.00;101394.78;4976357;28;20224;-63
2022/07/02 05:12:28;;;;;;;15.05;3.45;;;13.10;99.90;;;13.61;100.00;101384.19;4948644;28;20204;-63
2022/07/02 05:14:56;;;;;;;9.82;2.50;;;13.20;99.90;;;13.70;100.00;101386.97;4987095;28;20201;-63
2022/07/02 05:17:24;;;;;;;9.35;2.38;;;13.30;99.90;;;13.83;100.00;101395.97;4958328;28;20674;-63
2022/07/02 05:19:59;;;;;;;12.80;3.67;;;13.30;99.90;;;14.04;100.00;101409.50;4946393;28;20220;-63
2022/07/02 05:22:28;;;;;;;9.93;2.38;;;13.40;99.90;;;14.10;100.00;101413.97;4947787;28;20208;-63
2022/07/02 05:24:56;;;;;;;11.77;2.85;;;13.50;99.90;;;14.38;100.00;101436.47;4947091;28;20212;-64
2022/07/02 05:27:24;;;;;;;5.88;1.52;;;13.70;99.90;;;14.52;100.00;101452.59;4977175;28;20638;-64
2022/07/02 05:29:52;;;;;;;11.45;2.85;;;13.80;99.90;;;14.62;100.00;101471.31;4976839;28;20221;-65
2022/07/02 05:32:20;;;;;;;8.38;2.17;;;13.90;99.90;;;14.73;100.00;101480.31;4937865;28;20196;-64
2022/07/02 05:34:48;;;;;;;9.15;2.25;;;14.10;99.90;;;14.89;100.00;101483.97;4972555;28;20208;-64
2022/07/02 05:37:16;;;;;;;13.02;3.17;;;14.40;99.90;;;14.94;100.00;101489.34;4926949;28;20204;-65
2022/07/02 05:39:44;;;;;;;15.45;3.65;;;14.30;99.90;;;14.91;100.00;101484.00;4985484;28;20227;-64
2022/07/02 05:42:12;;;;;;;16.45;3.97;;;14.40;99.90;;;15.21;100.00;101504.63;4961452;28;20213;-65
2022/07/02 05:44:40;;;;;;;10.30;2.42;;;14.50;99.90;;;15.34;100.00;101488.75;4932254;28;20204;-64
2022/07/02 05:47:09;;;;;;;12.90;3.03;;;14.60;99.90;;;15.37;100.00;101478.09;4958615;28;20209;-64
2022/07/02 05:49:37;;;;;;;10.10;2.45;;;14.70;99.90;;;15.43;100.00;101477.25;4967553;28;20236;-64
2022/07/02 05:52:05;;;;;;;9.55;2.20;;;14.90;99.90;;;15.61;100.00;101485.41;5006186;28;20204;-66
2022/07/02 05:54:33;;;;;;;18.45;4.40;;;15.00;99.90;;;15.75;100.00;101480.16;4956257;28;20216;-65
2022/07/02 05:57:01;;;;;;;13.95;3.33;;;15.10;99.90;;;15.88;100.00;101465.97;4939740;28;20192;-65
2022/07/02 05:59:29;;;;;;;6.53;1.60;;;15.30;99.90;;;15.85;100.00;101449.06;4973487;28;20231;-65
2022/07/02 06:01:57;;;;;;;12.13;2.80;;;15.40;99.90;;;16.11;100.00;101460.69;4968217;28;20197;-65
2022/07/02 06:04:25;;;;;;;11.77;2.75;;;15.40;99.90;;;16.23;100.00;101444.72;4956171;28;20582;-65
2022/07/02 06:09:39;;;;;;;10.15;2.30;;;16.00;99.90;;;16.69;100.00;101449.25;4992336;28;20230;-65
2022/07/02 06:12:08;;;;;;;12.70;2.92;;;16.20;99.90;;;16.76;100.00;101443.00;4960182;28;20199;-65
2022/07/02 06:14:36;;;;;;;16.80;3.90;;;16.10;99.90;;;16.86;100.00;101443.00;4955215;28;20209;-65
2022/07/02 06:17:05;;;;;;;13.70;3.15;;;16.30;99.90;;;16.78;100.00;101417.19;4969204;28;20680;-65
2022/07/02 06:19:33;;;;;;;13.80;3.35;;;16.30;99.90;;;17.03;100.00;101442.13;4930550;28;20229;-66
2022/07/02 06:22:01;;;;;;;13.77;2.97;;;16.50;99.90;;;17.12;100.00;101429.66;4966253;28;20574;-65
2022/07/02 06:24:29;;;;;;;14.82;3.45;;;16.70;99.90;;;17.36;100.00;101433.16;4971806;28;20215;-65
2022/07/02 06:26:57;;;;;;;14.13;3.28;;;16.80;99.90;;;17.22;100.00;101411.81;4947103;28;20213;-65
2022/07/02 06:29:24;;;;;;;14.40;3.42;;;16.90;99.90;;;17.38;100.00;101407.28;4948704;28;20224;-65
2022/07/02 06:31:53;;;;;;;10.52;2.40;;;;;;;17.62;100.00;101412.56;4975116;28;20236;-65
2022/07/02 06:34:21;;;;;;;9.25;2.28;;;17.20;99.90;;;17.76;100.00;101401.81;4983979;28;20212;-65
2022/07/02 06:36:49;;;;;;;12.23;2.72;;;17.60;99.90;;;17.87;100.00;101384.81;4958447;28;20205;-65
2022/07/02 06:39:22;;;;;;;14.80;3.35;;;17.70;99.90;;;18.04;100.00;101405.22;4952618;28;20229;-66
2022/07/02 06:44:37;;;;;;;11.35;2.78;;;17.60;99.90;;;18.13;100.00;101394.47;4981941;28;20212;-66
2022/07/02 06:47:05;;;;;;;11.20;2.60;;;17.80;99.90;;;18.13;100.00;101392.66;4990685;28;20256;-65
2022/07/02 06:49:33;;;;;;;8.95;2.30;;;17.90;99.90;;;18.17;100.00;101356.94;4986370;28;20240;-66
2022/07/02 06:52:01;;;;;;;8.10;2.13;;;18.00;99.90;;;18.28;100.00;101364.94;4965268;28;20243;-65
2022/07/02 06:54:30;;;;;;;7.72;2.00;;;18.00;99.90;;;18.76;100.00;101384.19;4948993;28;20210;-65
2022/07/02 06:56:57;;;;;;;4.97;1.45;;;18.40;99.90;;;19.27;100.00;101392.59;4977225;28;20582;-66
2022/07/02 06:59:25;;;;;;;8.65;2.30;;;18.80;99.90;;;19.01;100.00;101353.56;4965918;28;20317;-65
2022/07/02 07:01:53;;;;;;;7.20;1.98;;;18.90;99.90;;;19.18;100.00;101370.34;4975663;28;20212;-66
2022/07/02 07:04:38;;;;;;;8.25;2.20;;;19.10;99.90;;;18.99;100.00;101331.22;4964205;28;20207;-66
2022/07/02 07:07:09;;;;;;;7.43;2.05;;;19.20;99.90;;;18.75;100.00;101320.78;4959125;28;20239;-66
2022/07/02 07:09:38;;;;;;;9.02;2.83;;;18.80;99.90;;;19.79;100.00;101401.81;4970502;28;20231;-66
2022/07/02 07:12:06;;;;;;;8.85;2.40;;;19.20;99.90;;;20.21;100.00;101348.41;4951723;28;20236;-65
2022/07/02 07:14:35;;;;;;;8.63;2.67;;;19.70;99.90;;;19.77;100.00;101282.84;4949588;28;20212;-65
2022/07/02 07:17:04;;;;;;;9.63;2.83;;;19.90;99.90;;;19.65;100.00;101296.47;4962872;28;20205;-65
2022/07/02 07:19:32;;;;;;;6.75;1.98;;;19.90;99.90;;;20.10;100.00;101337.81;4974696;28;20240;-66
2022/07/02 07:22:00;;;;;;;7.97;2.22;;;20.10;99.90;;;19.45;100.00;101260.91;4960280;28;20214;-65
2022/07/02 07:24:28;;;;;;;8.82;2.25;;;19.70;99.90;;;19.21;100.00;101239.81;4971260;28;20205;-65
2022/07/02 07:26:57;;;;;;;8.93;2.35;;;19.50;99.90;;;19.81;100.00;101321.28;4963419;28;20220;-65
2022/07/02 07:29:25;;;;;;;11.32;3.08;;;19.50;99.90;;;20.42;100.00;101336.44;4975617;28;20239;-66
2022/07/02 07:31:54;;;;;;;9.38;2.50;;;20.20;99.90;;;19.76;100.00;101224.72;4987819;28;20246;-65
2022/07/02 07:34:22;;;;;;;6.28;1.77;;;20.10;99.90;;;19.97;100.00;101239.59;4988021;28;20207;-65
2022/07/02 07:36:52;;;;;;;5.13;1.42;;;20.10;99.90;;;20.17;100.00;101259.84;4958962;28;20212;-66
2022/07/02 07:39:20;;;;;;;9.45;2.42;;;20.10;99.90;;;20.92;100.00;101315.84;4991316;28;20217;-65
2022/07/02 07:41:48;;;;;;;7.60;2.22;;;20.60;99.90;;;21.28;100.00;101252.34;4973011;28;20201;-66
2022/07/02 07:44:16;;;;;;;8.20;2.25;;;21.20;99.90;;;20.97;100.00;101215.34;4972711;28;20209;-66
2022/07/02 07:46:44;;;;;;;9.10;2.65;;;21.30;99.90;;;20.98;100.00;101202.78;4956005;28;20220;-66
2022/07/02 07:49:14;;;;;;;8.50;2.35;;;21.30;99.90;;;21.15;100.00;101205.97;4959967;28;20248;-66
2022/07/02 07:51:42;;;;;;;7.35;2.10;;;21.30;99.90;;;21.45;100.00;101211.63;4972385;28;20711;-65
2022/07/02 07:54:10;;;;;;;11.05;3.13;;;21.70;99.90;;;22.77;99.83;101240.53;4956365;28;20201;-65
2022/07/02 07:56:41;;;;;;;7.57;2.33;;;22.30;99.90;;;22.19;99.29;101131.66;4954977;28;20197;-64
2022/07/02 07:59:09;;;;;;;5.65;1.80;;;22.60;99.90;;;21.35;99.78;101068.34;4956574;28;20223;-64
2022/07/02 08:01:37;;;;;;;7.68;2.33;;;22.30;99.90;;;21.41;98.93;101081.63;4944925;28;20208;-64
2022/07/02 08:04:05;;;;;;;6.93;2.10;;;22.00;99.90;;;21.66;100.00;101119.56;4957707;28;20215;-64
2022/07/02 08:06:33;;;;;;;11.65;3.55;;;21.90;99.90;;;21.82;98.46;101111.97;4976593;28;20207;-65
2022/07/02 08:09:01;;;;;;;8.27;2.58;;;22.30;99.90;;;22.44;98.70;101176.78;4955563;28;20259;-64
2022/07/02 08:11:29;;;;;;;8.52;2.55;;;22.60;99.90;;;22.53;95.10;101109.13;4959481;28;20238;-64
2022/07/02 08:13:57;;;;;;;5.70;1.95;;;23.10;99.90;;;22.32;94.58;101076.50;4974022;28;20200;-65
2022/07/02 08:16:25;;;;;;;5.45;1.77;;;23.00;99.90;;;22.02;94.12;101010.88;4956488;28;20204;-64
2022/07/02 08:18:53;;;;;;;6.88;2.47;;;23.10;99.90;;;22.78;92.74;101099.38;4979156;28;20230;-65
2022/07/02 08:21:21;;;;;;;4.95;1.65;;;23.40;99.90;;;22.52;89.89;100978.88;4961179;28;20212;-64
2022/07/02 08:23:49;;;;;;;6.22;2.08;;;23.70;99.90;;;22.55;89.69;100970.69;4989882;28;20200;-64
2022/07/02 08:26:17;;;;;;;6.53;2.13;;;23.60;99.90;;;22.76;90.92;101014.94;5009970;28;20207;-64
2022/07/02 08:28:45;;;;;;;6.88;2.22;;;23.30;99.90;;;22.58;88.38;100916.66;4977706;28;20223;-64
2022/07/02 08:31:13;;;;;;;7.47;2.53;;;23.60;99.90;;;22.43;87.79;100897.41;4976998;28;20219;-64
2022/07/02 08:33:41;;;;;;;5.10;1.67;;;23.20;99.90;;;23.07;88.82;100977.09;4975952;28;20204;-64
2022/07/02 08:36:10;;;;;;;5.68;1.80;;;23.50;99.90;;;22.67;90.19;100931.66;4957077;28;20577;-63
2022/07/02 08:38:38;;;;;;;6.25;2.10;;;23.40;99.90;;;23.36;89.70;101015.69;4988428;28;20240;-64
2022/07/02 08:41:07;;;;;;;7.13;2.13;;;23.60;99.90;;;23.71;86.55;100982.09;4984661;28;20206;-64
2022/07/02 08:43:36;;;;;;;3.38;1.23;;;24.10;99.90;;;23.00;86.32;100832.56;4981862;28;20215;-64
2022/07/02 08:46:06;;;;;;;6.70;2.45;;;24.20;99.90;;;23.49;85.46;100887.47;4941285;28;20211;-64
2022/07/02 08:48:34;;;;;;;6.30;2.13;;;24.50;99.90;;;23.09;87.27;100851.13;4959676;28;20827;-67
2022/07/02 08:51:02;;;;;;;3.72;1.40;;;23.90;99.90;;;24.35;85.18;100975.19;4972708;28;20208;-64
2022/07/02 08:53:30;;;;;;;6.80;2.15;;;24.50;99.90;;;25.44;81.85;100942.69;4956082;28;20204;-64
2022/07/02 08:55:59;;;;;;;5.40;1.77;;;25.60;99.90;;;23.91;82.02;100766.16;4975597;28;20202;-65
2022/07/02 08:58:27;;;;;;;6.55;2.08;;;25.20;99.90;;;23.49;83.73;100736.31;4952816;28;20235;-65
2022/07/02 09:00:57;;;;;;;5.45;1.67;;;24.80;99.90;;;24.29;82.92;100839.38;4964693;28;20667;-64
2022/07/02 09:03:26;;;;;;;6.35;1.98;;;25.20;99.90;;;23.84;81.17;100700.69;4961619;28;20203;-64
2022/07/02 09:05:55;;;;;;;6.60;2.13;;;25.30;99.90;;;23.77;80.97;100696.50;4973059;28;20219;-64
2022/07/02 09:08:24;;;;;;;10.43;2.55;;;25.10;99.90;;;24.15;82.14;100750.75;4972083;28;20246;-64
2022/07/02 09:10:54;;;;;;;7.70;2.25;;;25.10;99.90;;;24.88;81.44;100810.72;4967539;28;20215;-64
2022/07/02 09:13:24;;;;;;;9.98;3.17;;;25.50;99.90;;;25.34;77.52;100765.34;4947117;28;20234;-65
2022/07/02 09:15:52;;;;;;;8.60;2.05;;;26.20;99.90;;;25.60;78.16;100779.47;4948379;28;20211;-64
2022/07/02 09:18:21;;;;;;;10.77;2.58;;;26.80;99.90;;;25.29;78.82;100702.41;4950942;28;20694;-65
2022/07/02 09:20:49;;;;;;;9.50;2.30;;;27.00;99.90;;;25.04;76.45;100639.56;4976770;28;20209;-65
2022/07/02 09:23:22;;;;;;;7.18;2.10;;;26.60;99.90;;;25.12;79.29;100661.75;4973595;28;20208;-64
2022/07/02 09:25:57;;;;;;;8.95;2.45;;;26.70;99.90;;;25.07;79.65;100643.00;4986696;28;20207;-65
2022/07/02 09:28:26;;;;;;;10.02;2.72;;;26.40;99.90;;;25.04;78.56;100624.22;4946588;28;20241;-65
2022/07/02 09:31:03;;;;;;;5.35;1.58;;;26.10;99.90;;;25.17;76.49;100601.03;4965238;28;20602;-65
2022/07/02 09:33:31;;;;;;;8.63;2.45;;;26.20;99.90;;;24.75;74.07;100486.75;4964182;28;20223;-64
2022/07/02 09:36:09;;;;;;;8.93;2.55;;;25.60;99.90;;;24.39;72.25;100413.66;4981753;28;20211;-64
2022/07/02 09:38:47;;;;;;;7.68;2.17;;;25.00;99.90;;;25.22;71.12;100497.94;4944335;28;20234;-65
2022/07/02 09:41:20;;;;;;;8.43;2.33;;;25.30;99.90;;;25.00;71.31;100432.34;4994010;28;20206;-64
2022/07/02 09:43:59;;;;;;;11.68;3.38;;;25.40;99.90;;;25.70;71.39;100508.13;4986118;28;20204;-65
2022/07/02 09:46:29;;;;;;;10.25;2.67;;;26.00;99.90;;;26.29;69.70;100522.19;4982875;28;20210;-64
2022/07/02 09:49:09;;;;;;;11.27;3.08;;;26.80;99.90;;;26.20;65.47;100406.13;4973163;28;20228;-65
2022/07/02 09:51:52;;;;;;;10.77;2.70;;;27.40;99.90;;;26.13;66.18;100429.97;4941562;28;20208;-65
2022/07/02 09:54:23;;;;;;;9.55;2.65;;;27.10;99.90;;;27.10;67.97;100546.56;4988113;28;20210;-65
2022/07/02 09:56:53;;;;;;;7.80;2.05;;;27.60;99.90;;;27.05;67.71;100501.63;4976571;28;20208;-65
2022/07/02 09:59:22;;;;;;;13.95;4.18;;;28.30;99.90;;;26.92;67.96;100438.16;4985582;28;20671;-65
2022/07/02 10:01:51;;;;;;;8.18;2.30;;;28.30;99.90;;;26.11;68.67;100356.88;4969243;28;20200;-65
2022/07/02 10:04:31;;;;;;;8.70;2.28;;;27.30;99.90;;;26.29;66.10;100317.00;4957070;28;20219;-66
2022/07/02 10:07:00;;;;;;;7.40;1.92;;;27.60;99.90;;;26.17;66.63;100287.91;4958744;28;20215;-65
2022/07/02 10:09:29;;;;;;;7.75;2.08;;;27.30;99.90;;;25.74;65.46;100183.78;4957564;28;20240;-65
2022/07/02 10:11:57;;;;;;;9.38;2.55;;;27.00;99.90;;;25.27;66.38;100121.50;4954796;28;20231;-65
2022/07/02 10:14:28;;;;;;;6.75;1.92;;;26.40;99.90;;;25.33;67.55;100167.16;4971870;28;20207;-65
2022/07/02 10:16:57;;;;;;;8.23;2.17;;;25.70;99.90;;;25.28;69.70;100202.59;4938050;28;20204;-64
2022/07/02 10:19:28;;;;;;;8.13;2.17;;;25.80;99.90;;;25.82;70.59;100298.88;4975767;28;20223;-65
2022/07/02 10:21:58;;;;;;;10.48;2.70;;;25.60;99.90;;;27.22;71.08;100443.63;4969477;28;20212;-65